createdAt,value
2018-12-16T00:02:08.606Z,75.71
2018-12-16T00:04:38.093Z,75.38
2018-12-16T00:07:07.389Z,75.57
2018-12-16T00:09:36.585Z,75.25
2018-12-16T00:12:05.655Z,75.36
2018-12-16T00:14:34.371Z,75.24
2018-12-16T00:17:03.193Z,75.39
2018-12-16T00:19:32.120Z,75.05
2018-12-16T00:22:00.798Z,74.79
2018-12-16T00:24:29.448Z,75.21
2018-12-16T00:27:09.390Z,75.06
2018-12-16T00:29:38.274Z,75.15
2018-12-16T00:32:07.086Z,75.33
2018-12-16T00:34:36.325Z,75.47
2018-12-16T00:37:05.359Z,75.42
2018-12-16T00:39:34.081Z,75.08
2018-12-16T00:42:02.968Z,75.08
2018-12-16T00:44:31.728Z,75.00
2018-12-16T00:47:00.599Z,74.88
2018-12-16T00:49:29.415Z,75.08
2018-12-16T00:51:58.706Z,75.07
2018-12-16T00:54:28.358Z,74.98
2018-12-16T00:56:57.738Z,74.98
2018-12-16T00:59:26.826Z,75.48
2018-12-16T01:01:55.597Z,75.81
2018-12-16T01:04:24.541Z,76.21
2018-12-16T01:06:53.196Z,77.06
2018-12-16T01:09:22.111Z,76.56
2018-12-16T01:11:50.754Z,77.21
2018-12-16T01:14:19.560Z,77.28
2018-12-16T01:16:48.538Z,77.32
2018-12-16T01:19:17.234Z,76.14
2018-12-16T01:21:46.214Z,76.46
2018-12-16T01:24:14.991Z,77.28
2018-12-16T01:26:43.941Z,77.30
2018-12-16T01:29:12.622Z,77.17
2018-12-16T01:31:41.794Z,76.60
2018-12-16T01:34:10.510Z,75.81
2018-12-16T01:36:39.779Z,75.38
2018-12-16T01:39:08.601Z,75.56
2018-12-16T01:41:37.609Z,74.95
2018-12-16T01:44:06.345Z,74.71
2018-12-16T01:46:35.162Z,75.19
2018-12-16T01:49:04.981Z,75.50
2018-12-16T01:51:33.966Z,75.59
2018-12-16T01:54:02.632Z,75.02
2018-12-16T01:56:31.445Z,75.31
2018-12-16T01:59:00.257Z,75.40
2018-12-16T02:01:29.127Z,75.57
2018-12-16T02:03:58.153Z,75.79
2018-12-16T02:06:26.978Z,76.31
2018-12-16T02:08:56.301Z,76.68
2018-12-16T02:11:25.103Z,77.62
2018-12-16T02:13:54.035Z,77.55
2018-12-16T02:16:22.715Z,78.09
2018-12-16T02:18:51.470Z,78.01
2018-12-16T02:21:20.505Z,77.93
2018-12-16T02:23:49.155Z,78.07
2018-12-16T02:26:18.131Z,77.82
2018-12-16T02:28:47.055Z,77.81
2018-12-16T02:31:15.737Z,78.14
2018-12-16T02:33:44.399Z,77.92
2018-12-16T02:36:13.135Z,77.99
2018-12-16T02:38:42.661Z,76.83
2018-12-16T02:41:11.405Z,77.24
2018-12-16T02:43:40.212Z,77.04
2018-12-16T02:46:09.763Z,77.24
2018-12-16T02:48:38.900Z,76.89
2018-12-16T02:51:07.889Z,77.62
2018-12-16T02:53:36.514Z,77.46
2018-12-16T02:56:05.521Z,77.39
2018-12-16T02:58:34.427Z,77.49
2018-12-16T03:01:03.626Z,77.54
2018-12-16T03:03:32.373Z,77.40
2018-12-16T03:06:01.457Z,77.71
2018-12-16T03:08:30.260Z,77.73
2018-12-16T03:10:59.182Z,76.95
2018-12-16T03:13:27.823Z,77.52
2018-12-16T03:15:56.712Z,77.33
2018-12-16T03:18:25.403Z,77.44
2018-12-16T03:20:54.136Z,77.42
2018-12-16T03:23:22.986Z,77.15
2018-12-16T03:25:51.748Z,77.04
2018-12-16T03:28:20.613Z,77.17
2018-12-16T03:30:49.218Z,77.49
2018-12-16T03:33:17.901Z,77.46
2018-12-16T03:35:46.623Z,78.23
2018-12-16T03:38:15.396Z,78.54
2018-12-16T03:40:44.035Z,78.06
2018-12-16T03:43:12.747Z,78.17
2018-12-16T03:45:41.697Z,78.12
2018-12-16T03:48:10.578Z,78.78
2018-12-16T03:50:39.405Z,78.82
2018-12-16T03:53:08.226Z,78.52
2018-12-16T03:55:37.142Z,78.34
2018-12-16T03:58:05.883Z,78.23
2018-12-16T04:00:34.603Z,77.78
2018-12-16T04:03:03.211Z,77.67
2018-12-16T04:05:31.847Z,77.75
2018-12-16T04:08:00.895Z,78.26
2018-12-16T04:10:29.882Z,78.38
2018-12-16T04:12:58.948Z,78.29
2018-12-16T04:15:27.879Z,77.45
2018-12-16T04:17:56.858Z,77.18
2018-12-16T04:20:25.513Z,77.47
2018-12-16T04:22:54.226Z,77.32
2018-12-16T04:25:23.804Z,77.45
2018-12-16T04:27:52.789Z,76.95
2018-12-16T04:30:21.587Z,77.41
2018-12-16T04:32:50.244Z,77.53
2018-12-16T04:35:19.000Z,77.44
2018-12-16T04:37:48.132Z,77.77
2018-12-16T04:40:17.105Z,78.81
2018-12-16T04:42:45.740Z,79.47
2018-12-16T04:45:15.361Z,79.37
2018-12-16T04:47:44.350Z,79.57
2018-12-16T04:50:13.230Z,79.74
2018-12-16T04:52:42.590Z,79.16
2018-12-16T04:55:11.811Z,79.49
2018-12-16T04:57:40.651Z,78.52
2018-12-16T05:00:10.223Z,77.93
2018-12-16T05:02:39.011Z,77.78
2018-12-16T05:05:07.868Z,77.14
2018-12-16T05:07:36.862Z,77.70
2018-12-16T05:10:16.675Z,77.72
2018-12-16T05:12:45.833Z,77.59
2018-12-16T05:15:14.752Z,77.79
2018-12-16T05:17:43.770Z,77.92
2018-12-16T05:20:12.938Z,78.09
2018-12-16T05:22:41.918Z,78.12
2018-12-16T05:25:10.828Z,78.14
2018-12-16T05:27:39.676Z,78.20
2018-12-16T05:30:09.118Z,77.84
2018-12-16T05:32:38.075Z,78.27
2018-12-16T05:35:06.996Z,77.82
2018-12-16T05:37:35.730Z,77.92
2018-12-16T05:40:04.972Z,77.60
2018-12-16T05:42:33.764Z,78.01
2018-12-16T05:45:02.800Z,77.97
2018-12-16T05:47:31.535Z,77.96
2018-12-16T05:50:01.117Z,77.89
2018-12-16T05:52:30.211Z,77.60
2018-12-16T05:54:59.608Z,78.12
2018-12-16T05:57:28.639Z,77.92
2018-12-16T05:59:57.725Z,77.76
2018-12-16T06:02:26.876Z,77.98
2018-12-16T06:04:56.129Z,78.21
2018-12-16T06:07:25.107Z,77.90
2018-12-16T06:09:54.123Z,78.41
2018-12-16T06:12:23.285Z,77.81
2018-12-16T06:14:52.312Z,77.48
2018-12-16T06:17:21.349Z,78.16
2018-12-16T06:19:50.547Z,78.29
2018-12-16T06:22:19.300Z,78.47
2018-12-16T06:24:48.200Z,78.37
2018-12-16T06:27:17.055Z,78.59
2018-12-16T06:29:46.271Z,78.08
2018-12-16T06:32:15.317Z,78.76
2018-12-16T06:34:44.386Z,78.41
2018-12-16T06:37:13.246Z,78.60
2018-12-16T06:39:42.782Z,78.39
2018-12-16T06:42:11.788Z,79.08
2018-12-16T06:44:40.531Z,79.02
2018-12-16T06:47:09.255Z,79.14
2018-12-16T06:49:37.938Z,79.01
2018-12-16T06:52:07.108Z,78.79
2018-12-16T06:54:35.869Z,78.82
2018-12-16T06:57:04.549Z,78.83
2018-12-16T06:59:33.301Z,79.19
2018-12-16T07:02:02.101Z,78.85
2018-12-16T07:04:30.860Z,78.95
2018-12-16T07:06:59.850Z,79.04
2018-12-16T07:09:31.544Z,78.99
2018-12-16T07:12:00.884Z,79.13
2018-12-16T07:14:30.152Z,78.76
2018-12-16T07:16:59.214Z,78.96
2018-12-16T07:19:28.149Z,78.52
2018-12-16T07:21:57.043Z,78.57
2018-12-16T07:24:25.870Z,78.27
2018-12-16T07:26:54.601Z,78.29
2018-12-16T07:29:23.589Z,78.41
2018-12-16T07:31:52.420Z,78.45
2018-12-16T07:34:21.409Z,77.79
2018-12-16T07:36:50.316Z,78.24
2018-12-16T07:39:19.305Z,77.66
2018-12-16T07:41:48.366Z,77.96
2018-12-16T07:44:17.211Z,78.47
2018-12-16T07:46:46.067Z,78.49
2018-12-16T07:49:15.076Z,78.18
2018-12-16T07:51:44.077Z,77.99
2018-12-16T07:54:16.068Z,78.89
2018-12-16T07:56:44.125Z,78.68
2018-12-16T07:59:13.018Z,78.88
2018-12-16T08:01:41.966Z,78.48
2018-12-16T08:04:10.786Z,78.48
2018-12-16T08:06:39.700Z,78.57
2018-12-16T08:09:09.702Z,78.56
2018-12-16T08:11:38.784Z,78.41
2018-12-16T08:14:07.705Z,78.27
2018-12-16T08:16:36.735Z,78.09
2018-12-16T08:19:07.132Z,78.01
2018-12-16T08:21:36.072Z,77.94
2018-12-16T08:24:04.961Z,78.17
2018-12-16T08:26:33.644Z,78.44
2018-12-16T08:29:02.539Z,78.41
2018-12-16T08:31:31.213Z,78.68
2018-12-16T08:33:59.951Z,78.56
2018-12-16T08:36:28.717Z,78.51
2018-12-16T08:38:57.556Z,78.32
2018-12-16T08:41:26.374Z,78.55
2018-12-16T08:43:55.069Z,78.62
2018-12-16T08:46:24.146Z,78.66
2018-12-16T08:48:53.671Z,78.16
2018-12-16T08:51:22.505Z,78.01
2018-12-16T08:53:51.427Z,78.09
2018-12-16T08:56:20.479Z,78.18
2018-12-16T08:58:49.365Z,78.25
2018-12-16T09:01:18.042Z,77.89
2018-12-16T09:03:47.716Z,77.99
2018-12-16T09:06:16.426Z,78.16
2018-12-16T09:08:45.717Z,77.91
2018-12-16T09:11:14.511Z,78.02
2018-12-16T09:13:43.281Z,77.72
2018-12-16T09:16:12.000Z,77.87
2018-12-16T09:18:40.742Z,77.80
2018-12-16T09:21:09.577Z,77.74
2018-12-16T09:23:38.676Z,77.90
2018-12-16T09:26:07.677Z,77.83
2018-12-16T09:28:36.360Z,77.78
2018-12-16T09:31:05.146Z,77.54
2018-12-16T09:33:34.188Z,77.78
2018-12-16T09:36:03.048Z,78.07
2018-12-16T09:38:31.789Z,78.01
2018-12-16T09:41:00.675Z,77.78
2018-12-16T09:43:29.417Z,78.00
2018-12-16T09:45:58.251Z,77.85
2018-12-16T09:48:28.210Z,77.44
2018-12-16T09:50:56.954Z,78.05
2018-12-16T09:53:26.394Z,77.59
2018-12-16T09:55:55.649Z,77.65
2018-12-16T09:58:24.418Z,77.60
2018-12-16T10:00:53.055Z,77.66
2018-12-16T10:03:22.066Z,77.73
2018-12-16T10:05:50.866Z,77.35
2018-12-16T10:08:19.559Z,77.75
2018-12-16T10:10:48.399Z,77.59
2018-12-16T10:13:17.135Z,77.88
2018-12-16T10:15:46.127Z,77.72
2018-12-16T10:18:14.821Z,78.11
2018-12-16T10:20:43.702Z,77.86
2018-12-16T10:23:12.668Z,78.28
2018-12-16T10:25:41.598Z,77.64
2018-12-16T10:28:11.506Z,78.06
2018-12-16T10:30:40.287Z,77.87
2018-12-16T10:33:09.123Z,78.61
2018-12-16T10:35:38.015Z,78.36
2018-12-16T10:38:07.318Z,78.96
2018-12-16T10:40:36.048Z,78.31
2018-12-16T10:43:04.817Z,78.64
2018-12-16T10:45:34.436Z,78.18
2018-12-16T10:48:03.358Z,77.90
2018-12-16T10:50:32.119Z,77.60
2018-12-16T10:53:00.954Z,77.90
2018-12-16T10:55:29.646Z,77.51
2018-12-16T10:57:58.490Z,77.87
2018-12-16T11:00:32.373Z,77.84
2018-12-16T11:03:01.990Z,78.10
2018-12-16T11:05:31.024Z,78.38
2018-12-16T11:07:59.697Z,78.32
2018-12-16T11:10:28.851Z,78.17
2018-12-16T11:12:57.926Z,78.12
2018-12-16T11:15:26.810Z,77.94
2018-12-16T11:17:55.487Z,78.24
2018-12-16T11:20:24.302Z,78.18
2018-12-16T11:22:52.899Z,77.90
2018-12-16T11:25:21.640Z,77.90
2018-12-16T11:27:50.396Z,77.98
2018-12-16T11:30:19.336Z,78.12
2018-12-16T11:32:48.317Z,78.11
2018-12-16T11:35:17.082Z,77.92
2018-12-16T11:37:45.868Z,78.07
2018-12-16T11:40:14.639Z,77.52
2018-12-16T11:43:46.655Z,78.26
2018-12-16T11:46:15.958Z,78.44
2018-12-16T11:48:44.665Z,78.25
2018-12-16T11:51:13.724Z,78.58
2018-12-16T11:53:43.132Z,78.56
2018-12-16T11:56:11.840Z,78.47
2018-12-16T11:58:40.651Z,78.78
2018-12-16T12:01:09.407Z,78.79
2018-12-16T12:03:38.380Z,78.63
2018-12-16T12:06:07.096Z,78.71
2018-12-16T12:08:35.856Z,78.88
2018-12-16T12:11:04.716Z,78.46
2018-12-16T12:13:33.336Z,78.45
2018-12-16T12:16:02.086Z,78.28
2018-12-16T12:18:31.429Z,78.45
2018-12-16T12:21:00.486Z,77.94
2018-12-16T12:23:29.345Z,78.36
2018-12-16T12:25:58.370Z,78.07
2018-12-16T12:28:27.533Z,78.32
2018-12-16T12:30:56.596Z,78.45
2018-12-16T12:33:25.721Z,78.01
2018-12-16T12:35:54.647Z,78.49
2018-12-16T12:38:23.467Z,78.17
2018-12-16T12:40:52.506Z,78.71
2018-12-16T12:43:21.221Z,78.84
2018-12-16T12:45:50.261Z,79.03
2018-12-16T12:48:19.454Z,78.87
2018-12-16T12:50:48.272Z,78.95
2018-12-16T12:53:17.695Z,79.49
2018-12-16T12:55:46.616Z,79.34
2018-12-16T12:58:15.702Z,79.90
2018-12-16T13:00:44.616Z,79.83
2018-12-16T13:03:13.755Z,80.13
2018-12-16T13:05:42.811Z,80.66
2018-12-16T13:08:11.940Z,80.49
2018-12-16T13:10:41.148Z,80.31
2018-12-16T13:13:10.441Z,80.15
2018-12-16T13:15:39.969Z,80.20
2018-12-16T13:18:09.287Z,80.39
2018-12-16T13:20:38.317Z,80.32
2018-12-16T13:23:07.106Z,80.46
2018-12-16T13:25:47.032Z,80.66
2018-12-16T13:28:16.265Z,80.79
2018-12-16T13:30:44.972Z,81.36
2018-12-16T13:33:14.031Z,81.37
2018-12-16T13:35:43.149Z,81.28
2018-12-16T13:38:12.688Z,81.79
2018-12-16T13:40:41.783Z,81.80
2018-12-16T13:43:10.767Z,82.59
2018-12-16T13:45:39.640Z,82.72
2018-12-16T13:48:08.801Z,82.80
2018-12-16T13:50:38.020Z,82.43
2018-12-16T13:53:07.206Z,82.33
2018-12-16T13:55:40.832Z,82.21
2018-12-16T13:58:07.261Z,82.10
2018-12-16T14:00:36.489Z,82.16
2018-12-16T14:03:05.334Z,82.07
2018-12-16T14:05:34.338Z,81.64
2018-12-16T14:08:03.429Z,82.00
2018-12-16T14:10:32.241Z,81.74
2018-12-16T14:13:01.239Z,82.04
2018-12-16T14:15:30.603Z,81.83
2018-12-16T14:17:59.486Z,81.28
2018-12-16T14:20:28.635Z,81.80
2018-12-16T14:22:57.780Z,81.51
2018-12-16T14:25:26.519Z,81.01
2018-12-16T14:27:55.689Z,80.87
2018-12-16T14:30:24.661Z,80.91
2018-12-16T14:32:53.479Z,80.81
2018-12-16T14:35:23.006Z,80.73
2018-12-16T14:37:52.072Z,80.71
2018-12-16T14:40:21.131Z,80.61
2018-12-16T14:42:50.169Z,80.46
2018-12-16T14:45:19.165Z,80.92
2018-12-16T14:47:48.522Z,80.94
2018-12-16T14:50:17.562Z,80.54
2018-12-16T14:52:46.451Z,80.75
2018-12-16T14:55:16.030Z,80.50
2018-12-16T14:57:44.967Z,80.20
2018-12-16T15:00:14.221Z,80.70
2018-12-16T15:02:43.107Z,80.45
2018-12-16T15:05:11.953Z,80.54
2018-12-16T15:07:40.958Z,81.04
2018-12-16T15:10:11.265Z,81.35
2018-12-16T15:12:40.250Z,82.14
2018-12-16T15:15:09.240Z,82.92
2018-12-16T15:17:42.646Z,83.03
2018-12-16T15:20:09.703Z,83.41
2018-12-16T15:22:39.023Z,83.06
2018-12-16T15:25:08.362Z,82.79
2018-12-16T15:27:37.205Z,82.21
2018-12-16T15:30:08.593Z,82.72
2018-12-16T15:32:37.386Z,82.80
2018-12-16T15:35:06.635Z,82.60
2018-12-16T15:37:35.641Z,82.50
2018-12-16T15:40:06.465Z,82.16
2018-12-16T15:42:35.362Z,82.18
2018-12-16T15:45:04.427Z,81.84
2018-12-16T15:47:33.137Z,81.70
2018-12-16T15:50:02.248Z,81.55
2018-12-16T15:52:30.925Z,82.83
2018-12-16T15:54:59.946Z,82.72
2018-12-16T15:57:28.705Z,83.42
2018-12-16T15:59:58.586Z,82.69
2018-12-16T16:02:27.477Z,82.60
2018-12-16T16:04:56.554Z,82.53
2018-12-16T16:07:25.437Z,82.95
2018-12-16T16:09:54.438Z,82.49
2018-12-16T16:12:23.233Z,82.80
2018-12-16T16:14:52.015Z,82.91
2018-12-16T16:17:20.872Z,82.77
2018-12-16T16:19:49.729Z,82.44
2018-12-16T16:22:18.526Z,82.51
2018-12-16T16:24:47.342Z,82.55
2018-12-16T16:27:16.902Z,82.53
2018-12-16T16:29:45.724Z,82.33
2018-12-16T16:32:14.741Z,82.79
2018-12-16T16:34:43.570Z,83.29
2018-12-16T16:37:12.690Z,83.28
2018-12-16T16:39:41.383Z,82.67
2018-12-16T16:42:10.263Z,82.97
2018-12-16T16:44:39.036Z,83.04
2018-12-16T16:47:07.862Z,82.76
2018-12-16T16:49:37.616Z,82.76
2018-12-16T16:52:06.391Z,82.62
2018-12-16T16:54:35.180Z,82.73
2018-12-16T16:57:04.043Z,82.62
2018-12-16T16:59:32.881Z,82.83
2018-12-16T17:02:01.711Z,83.00
2018-12-16T17:04:30.642Z,82.74
2018-12-16T17:06:59.460Z,82.98
2018-12-16T17:09:28.293Z,82.60
2018-12-16T17:11:57.562Z,82.66
2018-12-16T17:14:26.431Z,82.76
2018-12-16T17:16:55.305Z,82.61
2018-12-16T17:19:24.110Z,82.56
2018-12-16T17:21:53.952Z,82.18
2018-12-16T17:24:22.734Z,82.37
2018-12-16T17:26:51.541Z,82.32
2018-12-16T17:29:20.399Z,82.63
2018-12-16T17:31:49.325Z,82.70
2018-12-16T17:34:18.262Z,82.95
2018-12-16T17:36:47.205Z,82.46
2018-12-16T17:39:16.060Z,82.25
2018-12-16T17:41:45.367Z,81.83
2018-12-16T17:44:14.448Z,81.71
2018-12-16T17:46:43.454Z,81.43
2018-12-16T17:49:12.875Z,81.64
2018-12-16T17:51:42.023Z,80.30
2018-12-16T17:54:10.989Z,80.40
2018-12-16T17:56:39.935Z,80.52
2018-12-16T17:59:08.735Z,80.87
2018-12-16T18:01:37.817Z,81.21
2018-12-16T18:04:10.304Z,81.02
2018-12-16T18:06:39.452Z,81.08
2018-12-16T18:09:09.266Z,80.89
2018-12-16T18:11:39.746Z,80.89
2018-12-16T18:14:09.233Z,80.08
2018-12-16T18:16:38.455Z,79.90
2018-12-16T18:19:07.856Z,79.70
2018-12-16T18:21:37.103Z,79.75
2018-12-16T18:24:06.293Z,80.34
2018-12-16T18:26:35.673Z,79.75
2018-12-16T18:29:04.890Z,79.48
2018-12-16T18:31:34.347Z,80.35
2018-12-16T18:34:03.170Z,80.49
2018-12-16T18:36:32.159Z,80.39
2018-12-16T18:39:01.186Z,80.10
2018-12-16T18:41:30.060Z,79.85
2018-12-16T18:43:59.266Z,79.83
2018-12-16T18:46:28.048Z,80.06
2018-12-16T18:48:56.994Z,79.87
2018-12-16T18:54:00.704Z,79.40
2018-12-16T18:56:29.668Z,78.93
2018-12-16T18:58:58.886Z,79.20
2018-12-16T19:01:28.122Z,78.58
2018-12-16T19:03:57.164Z,79.24
2018-12-16T19:06:26.602Z,79.54
2018-12-16T19:08:56.686Z,79.18
2018-12-16T19:11:25.786Z,79.11
2018-12-16T19:13:55.039Z,78.97
2018-12-16T19:16:25.439Z,78.91
2018-12-16T19:18:55.218Z,78.82
2018-12-16T19:21:24.545Z,78.85
2018-12-16T19:23:53.955Z,79.37
2018-12-16T19:26:23.214Z,79.18
2018-12-16T19:28:52.587Z,78.96
2018-12-16T19:31:21.925Z,78.84
2018-12-16T19:33:51.432Z,79.35
2018-12-16T19:36:20.794Z,79.44
2018-12-16T19:38:50.058Z,79.46
2018-12-16T19:41:19.426Z,79.07
2018-12-16T19:43:48.669Z,78.92
2018-12-16T19:46:17.954Z,79.24
2018-12-16T19:48:47.396Z,78.87
2018-12-16T19:51:17.516Z,79.14
2018-12-16T19:53:47.063Z,78.74
2018-12-16T19:56:16.929Z,79.06
2018-12-16T19:58:46.376Z,78.91
2018-12-16T20:01:15.784Z,79.01
2018-12-16T20:03:50.057Z,79.08
2018-12-16T20:06:24.524Z,79.14
2018-12-16T20:08:53.883Z,78.70
2018-12-16T20:11:23.131Z,78.61
2018-12-16T20:13:52.394Z,78.82
2018-12-16T20:16:21.661Z,78.56
2018-12-16T20:18:50.965Z,78.99
2018-12-16T20:21:20.388Z,78.68
2018-12-16T20:23:50.048Z,78.27
2018-12-16T20:26:19.531Z,78.60
2018-12-16T20:28:48.855Z,78.89
2018-12-16T20:31:18.250Z,79.01
2018-12-16T20:33:47.499Z,78.80
2018-12-16T20:36:16.814Z,78.61
2018-12-16T20:38:46.337Z,78.84
2018-12-16T20:41:15.478Z,78.58
2018-12-16T20:43:45.414Z,78.77
2018-12-16T20:46:14.888Z,78.69
2018-12-16T20:48:44.497Z,78.76
2018-12-16T20:51:14.177Z,79.19
2018-12-16T20:53:43.835Z,79.12
2018-12-16T20:56:13.224Z,79.01
2018-12-16T20:58:42.349Z,79.02
2018-12-16T21:01:11.662Z,78.95
2018-12-16T21:03:41.039Z,79.11
2018-12-16T21:06:10.570Z,78.91
2018-12-16T21:08:40.036Z,78.78
2018-12-16T21:11:14.797Z,79.04
2018-12-16T21:13:48.860Z,79.05
2018-12-16T21:16:22.771Z,79.12
2018-12-16T21:18:51.686Z,78.99
2018-12-16T21:21:20.723Z,79.09
2018-12-16T21:23:49.762Z,78.40
2018-12-16T21:26:18.577Z,78.48
2018-12-16T21:28:47.316Z,78.31
2018-12-16T21:31:16.271Z,78.76
2018-12-16T21:33:45.144Z,78.84
2018-12-16T21:36:14.445Z,78.96
2018-12-16T21:38:43.752Z,79.00
2018-12-16T21:41:12.646Z,78.82
2018-12-16T21:43:41.443Z,78.30
2018-12-16T21:46:10.532Z,78.93
2018-12-16T21:48:39.626Z,79.02
2018-12-16T21:51:08.714Z,79.04
2018-12-16T21:53:38.261Z,79.18
2018-12-16T21:56:06.971Z,78.94
2018-12-16T21:58:35.907Z,78.93
2018-12-16T22:01:04.781Z,79.01
2018-12-16T22:03:34.619Z,79.09
2018-12-16T22:06:03.353Z,79.16
2018-12-16T22:08:32.503Z,79.07
2018-12-16T22:11:01.350Z,78.75
2018-12-16T22:13:30.227Z,78.72
2018-12-16T22:15:59.131Z,78.57
2018-12-16T22:18:27.999Z,78.86
2018-12-16T22:20:57.146Z,79.01
2018-12-16T22:23:26.263Z,78.98
2018-12-16T22:25:55.313Z,78.88
2018-12-16T22:28:24.378Z,78.92
2018-12-16T22:30:53.703Z,79.01
2018-12-16T22:33:22.485Z,79.00
2018-12-16T22:35:51.423Z,79.25
2018-12-16T22:38:21.690Z,79.36
2018-12-16T22:40:50.497Z,79.58
2018-12-16T22:43:19.461Z,79.58
2018-12-16T22:45:49.146Z,79.90
2018-12-16T22:48:18.113Z,80.23
2018-12-16T22:50:47.146Z,80.56
2018-12-16T22:53:15.903Z,80.79
2018-12-16T22:55:44.679Z,80.69
2018-12-16T22:58:13.741Z,81.32
2018-12-16T23:00:48.328Z,81.58
2018-12-16T23:03:17.602Z,81.33
2018-12-16T23:05:46.644Z,81.40
2018-12-16T23:08:16.170Z,81.40
2018-12-16T23:10:45.940Z,81.57
2018-12-16T23:13:15.601Z,81.66
2018-12-16T23:15:44.598Z,81.97
2018-12-16T23:18:13.340Z,81.68
2018-12-16T23:20:42.815Z,82.15
2018-12-16T23:23:11.802Z,81.98
2018-12-16T23:25:40.622Z,81.99
2018-12-16T23:28:09.606Z,82.43
2018-12-16T23:30:38.350Z,82.54
2018-12-16T23:33:07.177Z,82.34
2018-12-16T23:35:35.869Z,83.13
2018-12-16T23:38:04.590Z,83.48
2018-12-16T23:40:33.393Z,83.32
2018-12-16T23:43:02.328Z,83.73
2018-12-16T23:45:31.288Z,83.62
2018-12-16T23:48:00.575Z,83.86
2018-12-16T23:50:29.408Z,85.66
2018-12-16T23:52:58.534Z,86.27
2018-12-16T23:55:27.208Z,89.72
2018-12-16T23:58:00.986Z,88.70
